Hauptseite
METAR-TAF:

METAR-TAF

Flughäfen :

Hawarden Airport

Hawarden, Wales

Breite: 53-10N, Länge: 002-59W, Höhe: 10 m

Beobachtung

Neuester Wetterbericht von vor 14 Stunden und 21 Minuten, um 15:20 UTC
Wind 8 kt aus Ost/Südost, variierte zwischen Ost und Süd
Temperatur 24°C
Luftfeuchtigkeit 38%
Luftdruck 1022 hPa
Sichtweite 10 km oder mehr
Leicht bewölkt in der Höhe von 4500 ft

METAR: EGNR 301520Z 12008KT 090V170 9999 FEW045 24/09 Q1022

Zeit: 06:41 (05:41 UTC)

Prognose

Neuester Wetterbericht von vor 20 Stunden und 58 Minuten, um 08:43 UTC
Gültige Prognose vom 30 um 09 UTC bis 30 um 15 UTC
Wind 7 kt aus Südost
Sichtweite 10 km oder mehr
keine Wolken unter 1500 m und keine Kumulonimbus oder Gewitterwolken

TAF: EGNR 300843Z 3009/3015 13007KT CAVOK

Wetterbeobachtungen und Prognosen von mehr als 4000 Flughäfen (METAR und TAF Bericht).

Die verfügbaren Stationen werden durch gelbe und rote Markierungen auf der Karte dargestellt.

Führen Sie die Maus auf sie, um den Namen der Station zu sehen.

Darauf klicken, um die Beobachtung von Wetterbeobachtungen und Prognosen zu sehen.

Um die Karte zu ändern : klicken Sie auf den grünen Tasten mit einem schwarzen Kreuz Zum Vergrößern, auf den grünen Button mit einem Gedankenstrich zu verkleinern, oder auf die grünen Pfeile für benachbarte Karten.


METAR-TAF: